Time;durP1;ratioP1;P1;durP2;ratioP2;P2;SDS_P1;SDS_P2;PMS_P1;PMS_P2;Temp;Humidity;BMP_temperature;BMP_pressure;BME280_temperature;BME280_humidity;BME280_pressure;Samples;Min_cycle;Max_cycle;Signal;HPM_P1;HPM_P2
2023/05/17 00:00:53;;;;;;;3.47;1.20;;;6.30;99.90;;;;;;5030950;28;20457;-66
2023/05/17 00:03:19;;;;;;;1.20;0.50;;;6.30;99.90;;;;;;5029159;28;20197;-67
2023/05/17 00:05:45;;;;;;;1.50;0.90;;;6.30;99.90;;;;;;5022418;28;20612;-66
2023/05/17 00:08:10;;;;;;;1.87;0.80;;;6.20;99.90;;;;;;5029424;28;20520;-67
2023/05/17 00:10:36;;;;;;;1.63;0.70;;;6.20;99.90;;;;;;5029832;28;20249;-67
2023/05/17 00:13:02;;;;;;;1.40;0.80;;;6.10;99.90;;;;;;5030487;28;20202;-66
2023/05/17 00:15:28;;;;;;;10.83;0.90;;;6.10;99.90;;;;;;5025801;28;20658;-67
2023/05/17 00:17:54;;;;;;;9.10;1.50;;;6.10;99.90;;;;;;5011161;28;20430;-67
2023/05/17 00:20:20;;;;;;;1.60;0.80;;;6.10;99.90;;;;;;5016633;28;20174;-67
2023/05/17 00:22:46;;;;;;;2.33;0.90;;;6.10;99.90;;;;;;5023815;28;20907;-66
2023/05/17 00:25:12;;;;;;;1.50;0.70;;;6.10;99.90;;;;;;5029870;28;20187;-66
2023/05/17 00:27:37;;;;;;;2.37;0.80;;;6.20;99.90;;;;;;5031048;28;20518;-66
2023/05/17 00:30:04;;;;;;;1.50;0.77;;;6.20;99.90;;;;;;5030686;28;20424;-66
2023/05/17 00:32:30;;;;;;;2.07;1.03;;;6.20;99.90;;;;;;5030258;28;20526;-66
2023/05/17 00:34:56;;;;;;;3.97;0.83;;;6.20;99.90;;;;;;5025112;28;20426;-66
2023/05/17 00:37:21;;;;;;;2.07;0.70;;;6.20;99.90;;;;;;5023118;28;20190;-67
2023/05/17 00:39:47;;;;;;;1.20;0.60;;;6.20;99.90;;;;;;5030662;28;20687;-66
2023/05/17 00:42:13;;;;;;;2.53;0.97;;;6.20;99.90;;;;;;5030584;28;20222;-67
2023/05/17 00:44:39;;;;;;;4.40;1.20;;;6.20;99.90;;;;;;5025608;28;20540;-67
2023/05/17 00:47:05;;;;;;;5.40;0.90;;;6.20;99.90;;;;;;5022561;28;20432;-66
2023/05/17 00:49:31;;;;;;;1.67;0.67;;;6.10;99.90;;;;;;5015456;28;20428;-67
2023/05/17 00:51:58;;;;;;;2.20;1.07;;;6.00;99.90;;;;;;5021027;28;20191;-67
2023/05/17 00:54:24;;;;;;;4.37;1.50;;;5.90;99.90;;;;;;5029012;28;20217;-66
2023/05/17 00:56:52;;;;;;;16.93;0.97;;;5.80;99.90;;;;;;5030873;28;20791;-66
2023/05/17 00:59:18;;;;;;;3.47;0.97;;;5.70;99.90;;;;;;5016938;28;20428;-66
2023/05/17 01:01:44;;;;;;;5.53;1.30;;;5.70;99.90;;;;;;5018804;28;20466;-66
2023/05/17 01:04:10;;;;;;;2.27;1.10;;;5.60;99.90;;;;;;5029179;28;20993;-67
2023/05/17 01:06:36;;;;;;;5.30;1.30;;;5.60;99.90;;;;;;5030381;28;20455;-66
2023/05/17 01:09:03;;;;;;;4.00;1.33;;;5.60;99.90;;;;;;5030238;28;20202;-66
2023/05/17 01:11:47;;;;;;;1.57;0.87;;;5.60;99.90;;;;;;5030084;28;20470;-67
2023/05/17 01:14:31;;;;;;;2.93;0.87;;;5.50;99.90;;;;;;5007659;28;20417;-66
2023/05/17 01:17:03;;;;;;;1.40;0.80;;;5.50;99.90;;;;;;5013363;28;20449;-66
2023/05/17 01:19:53;;;;;;;1.90;0.80;;;5.40;99.90;;;;;;5002678;28;20444;-67
2023/05/17 01:22:37;;;;;;;3.50;1.40;;;5.40;99.90;;;;;;5025861;28;20472;-66
2023/05/17 01:25:36;;;;;;;1.67;0.73;;;5.30;99.90;;;;;;5026612;28;20425;-66
2023/05/17 01:28:04;;;;;;;1.20;0.60;;;5.30;99.90;;;;;;5023077;28;20471;-66
2023/05/17 01:30:33;;;;;;;3.93;1.27;;;5.40;99.90;;;;;;5030358;28;20425;-66
2023/05/17 01:33:01;;;;;;;1.77;0.80;;;5.40;99.90;;;;;;5028197;28;20782;-66
2023/05/17 01:35:27;;;;;;;2.80;0.80;;;5.40;99.90;;;;;;5019756;28;20499;-67
2023/05/17 01:37:53;;;;;;;3.10;1.47;;;5.40;99.90;;;;;;5026031;28;20762;-66
2023/05/17 01:40:19;;;;;;;1.50;0.83;;;5.30;99.90;;;;;;5020511;28;20183;-66
2023/05/17 01:42:51;;;;;;;2.73;0.80;;;5.40;99.90;;;;;;5029076;28;20933;-66
2023/05/17 01:45:26;;;;;;;2.30;0.87;;;5.40;99.90;;;;;;5029505;28;20776;-66
2023/05/17 01:47:55;;;;;;;2.03;0.90;;;5.40;99.90;;;;;;5029611;28;20795;-67
2023/05/17 01:50:24;;;;;;;1.40;0.87;;;5.30;99.90;;;;;;5031722;28;20413;-66
2023/05/17 01:52:54;;;;;;;1.20;0.70;;;5.30;99.90;;;;;;5023592;28;20820;-66
2023/05/17 01:55:31;;;;;;;4.17;0.97;;;5.20;99.90;;;;;;5033460;28;20516;-66
2023/05/17 01:58:00;;;;;;;1.70;1.00;;;5.10;99.90;;;;;;5033855;28;21013;-66
2023/05/17 02:00:28;;;;;;;1.60;0.73;;;5.10;99.90;;;;;;5031990;28;20429;-66
2023/05/17 02:02:54;;;;;;;3.93;0.70;;;5.00;99.90;;;;;;5023432;28;20877;-66
2023/05/17 02:05:20;;;;;;;1.70;0.70;;;5.00;99.90;;;;;;5028977;28;20456;-66
2023/05/17 02:07:45;;;;;;;1.50;0.87;;;5.00;99.90;;;;;;5033488;28;20216;-66
2023/05/17 02:10:12;;;;;;;2.07;0.93;;;5.00;99.90;;;;;;5033202;28;20703;-66
2023/05/17 02:12:37;;;;;;;1.23;0.70;;;4.90;99.90;;;;;;5032323;28;20194;-66
2023/05/17 02:15:03;;;;;;;4.73;0.93;;;4.90;99.90;;;;;;5032814;28;20444;-66
2023/05/17 02:17:29;;;;;;;1.93;0.80;;;4.90;99.90;;;;;;5007771;28;20191;-66
2023/05/17 02:19:55;;;;;;;2.63;0.83;;;4.90;99.90;;;;;;5014761;28;20501;-66
2023/05/17 02:22:20;;;;;;;2.57;1.50;;;4.90;99.90;;;;;;5025231;28;20856;-66
2023/05/17 02:24:47;;;;;;;5.13;1.00;;;4.80;99.90;;;;;;5009660;28;20183;-66
2023/05/17 02:27:13;;;;;;;1.50;0.77;;;4.80;99.90;;;;;;5009910;28;20188;-67
2023/05/17 02:29:38;;;;;;;1.80;1.00;;;4.80;99.90;;;;;;5010587;28;20449;-66
2023/05/17 02:32:05;;;;;;;1.70;1.10;;;4.80;99.90;;;;;;5023758;28;20193;-66
2023/05/17 02:34:30;;;;;;;4.20;1.13;;;4.80;99.90;;;;;;5016076;28;20184;-66
2023/05/17 02:36:56;;;;;;;1.50;0.80;;;4.70;99.90;;;;;;5016163;28;20430;-66
2023/05/17 02:39:22;;;;;;;7.70;1.47;;;4.70;99.90;;;;;;5012678;28;20209;-66
2023/05/17 02:41:48;;;;;;;1.53;0.70;;;4.60;99.90;;;;;;5012660;28;20230;-66
2023/05/17 02:44:13;;;;;;;4.37;1.70;;;4.60;99.90;;;;;;5011494;28;20789;-66
2023/05/17 02:46:39;;;;;;;10.03;1.50;;;4.60;99.90;;;;;;5013050;28;20195;-66
2023/05/17 02:49:04;;;;;;;2.57;1.03;;;4.60;99.90;;;;;;5012179;28;20179;-66
2023/05/17 02:51:30;;;;;;;2.17;1.17;;;4.60;99.90;;;;;;5012423;28;20191;-66
2023/05/17 02:53:56;;;;;;;4.57;1.30;;;4.60;99.90;;;;;;5012507;28;20187;-66
2023/05/17 02:56:21;;;;;;;3.63;1.33;;;4.60;99.90;;;;;;5012930;28;20218;-66
2023/05/17 02:58:47;;;;;;;3.73;1.80;;;4.50;99.90;;;;;;5012832;28;20191;-67
2023/05/17 03:01:12;;;;;;;2.77;1.13;;;4.50;99.90;;;;;;5011540;28;20278;-66
2023/05/17 03:03:38;;;;;;;1.70;0.73;;;4.40;99.90;;;;;;5011296;28;20609;-66
2023/05/17 03:06:04;;;;;;;2.87;1.40;;;4.40;99.90;;;;;;5011938;28;20183;-66
2023/05/17 03:08:30;;;;;;;2.50;0.83;;;4.40;99.90;;;;;;5012376;28;20270;-67
2023/05/17 03:10:56;;;;;;;2.80;1.43;;;4.40;99.90;;;;;;5020289;28;20182;-66
2023/05/17 03:13:21;;;;;;;4.80;1.83;;;4.40;99.90;;;;;;5015475;28;20807;-66
2023/05/17 03:15:47;;;;;;;2.73;1.13;;;4.40;99.90;;;;;;5012384;28;20179;-66
2023/05/17 03:18:13;;;;;;;1.97;0.90;;;4.30;99.90;;;;;;5012147;28;20245;-66
2023/05/17 03:20:38;;;;;;;3.70;0.77;;;4.30;99.90;;;;;;5019953;28;20199;-66
2023/05/17 03:23:04;;;;;;;1.47;0.90;;;4.30;99.90;;;;;;5016425;28;20203;-66
2023/05/17 03:25:29;;;;;;;1.30;0.60;;;4.30;99.90;;;;;;5012065;28;20548;-66
2023/05/17 03:27:55;;;;;;;5.80;1.27;;;4.30;99.90;;;;;;5025490;28;20186;-66
2023/05/17 03:30:20;;;;;;;4.27;1.77;;;4.20;99.90;;;;;;5010849;28;20198;-66
2023/05/17 03:32:46;;;;;;;2.20;1.20;;;4.20;99.90;;;;;;5010590;28;20590;-66
2023/05/17 03:35:12;;;;;;;4.60;1.60;;;4.20;99.90;;;;;;5010507;28;20236;-69
2023/05/17 03:37:37;;;;;;;2.20;1.03;;;4.20;99.90;;;;;;4998998;28;20191;-66
2023/05/17 03:40:04;;;;;;;2.23;1.20;;;4.10;99.90;;;;;;5012292;28;20194;-66
2023/05/17 03:42:29;;;;;;;5.53;1.30;;;4.20;99.90;;;;;;5011622;28;20652;-66
2023/05/17 03:44:55;;;;;;;3.90;1.43;;;4.10;99.90;;;;;;5012329;28;20426;-66
2023/05/17 03:47:24;;;;;;;7.03;2.17;;;4.10;99.90;;;;;;5012088;28;20183;-66
2023/05/17 03:49:50;;;;;;;8.20;2.10;;;4.10;99.90;;;;;;5011196;28;20179;-66
2023/05/17 03:52:15;;;;;;;2.57;1.50;;;4.10;99.90;;;;;;5007092;28;20431;-66
2023/05/17 03:54:41;;;;;;;3.40;1.60;;;4.00;99.90;;;;;;5011524;28;20894;-66
2023/05/17 03:57:06;;;;;;;3.30;1.47;;;4.00;99.90;;;;;;5027366;28;20197;-66
2023/05/17 03:59:32;;;;;;;4.97;1.67;;;4.00;99.90;;;;;;5031562;28;20198;-66
2023/05/17 04:01:58;;;;;;;5.77;1.93;;;4.00;99.90;;;;;;5013190;28;20209;-66
2023/05/17 04:04:23;;;;;;;5.73;2.60;;;3.90;99.90;;;;;;5007207;28;20610;-66
2023/05/17 04:06:49;;;;;;;7.83;2.20;;;4.00;99.90;;;;;;5011441;28;20202;-66
2023/05/17 04:09:15;;;;;;;8.00;2.80;;;3.90;99.90;;;;;;5009040;28;20187;-66
2023/05/17 04:11:42;;;;;;;2.90;1.10;;;3.90;99.90;;;;;;5008794;28;20227;-66
2023/05/17 04:14:07;;;;;;;3.70;1.30;;;3.90;99.90;;;;;;5019365;28;20225;-66
2023/05/17 04:16:33;;;;;;;3.73;1.20;;;3.90;99.90;;;;;;5012554;28;20429;-66
2023/05/17 04:18:59;;;;;;;1.67;0.80;;;4.00;99.90;;;;;;5007237;28;20525;-66
2023/05/17 04:21:25;;;;;;;1.80;0.80;;;4.00;99.90;;;;;;5022931;28;20192;-66
2023/05/17 04:23:51;;;;;;;1.73;1.27;;;4.00;99.90;;;;;;5009487;28;20437;-66
2023/05/17 04:26:17;;;;;;;2.03;1.00;;;4.10;99.90;;;;;;5011486;28;20626;-66
2023/05/17 04:28:43;;;;;;;1.50;0.73;;;4.10;99.90;;;;;;5008268;28;20283;-66
2023/05/17 04:31:09;;;;;;;3.73;1.17;;;4.10;99.90;;;;;;5011214;28;20460;-66
2023/05/17 04:33:35;;;;;;;1.40;0.87;;;4.10;99.90;;;;;;5010939;28;20220;-67
2023/05/17 04:36:01;;;;;;;2.20;0.80;;;4.20;99.90;;;;;;5010537;28;20422;-66
2023/05/17 04:38:28;;;;;;;1.40;0.60;;;4.20;99.90;;;;;;5011263;28;20470;-66
2023/05/17 04:41:00;;;;;;;2.00;0.97;;;4.20;99.90;;;;;;5009709;28;20583;-66
2023/05/17 04:43:26;;;;;;;1.80;1.23;;;4.20;99.90;;;;;;5009399;28;20827;-66
2023/05/17 04:45:57;;;;;;;2.40;1.20;;;4.30;99.90;;;;;;5022897;28;20440;-66
2023/05/17 04:48:25;;;;;;;1.50;1.00;;;4.40;99.90;;;;;;5011164;28;20540;-66
2023/05/17 04:50:51;;;;;;;8.73;1.17;;;4.50;99.90;;;;;;5008502;28;20431;-66
2023/05/17 04:53:16;;;;;;;4.87;1.20;;;4.60;99.90;;;;;;5008407;28;20430;-66
2023/05/17 04:55:42;;;;;;;2.70;1.30;;;4.70;99.90;;;;;;5010915;28;20422;-66
2023/05/17 04:58:08;;;;;;;10.53;1.37;;;4.70;99.90;;;;;;5009556;28;20186;-66
2023/05/17 05:00:34;;;;;;;3.63;1.00;;;4.70;99.90;;;;;;5008515;28;20186;-66
2023/05/17 05:03:00;;;;;;;2.03;0.90;;;4.80;99.90;;;;;;5010303;28;20288;-66
2023/05/17 05:05:25;;;;;;;1.83;1.00;;;4.90;99.90;;;;;;5022787;28;20426;-66
2023/05/17 05:07:51;;;;;;;1.30;0.70;;;4.90;99.90;;;;;;5012096;28;20196;-66
2023/05/17 05:10:16;;;;;;;2.67;1.13;;;5.00;99.90;;;;;;5004199;28;20183;-67
2023/05/17 05:12:43;;;;;;;2.30;1.00;;;5.10;99.90;;;;;;5008117;28;20202;-67
2023/05/17 05:15:09;;;;;;;2.93;1.17;;;5.20;99.90;;;;;;5014171;28;20543;-67
2023/05/17 05:17:35;;;;;;;4.90;1.10;;;5.20;99.90;;;;;;5010904;28;20426;-67
2023/05/17 05:20:01;;;;;;;7.27;1.27;;;5.20;99.90;;;;;;5013146;28;20427;-66
2023/05/17 05:22:27;;;;;;;4.57;1.57;;;5.20;99.90;;;;;;5018931;28;20224;-67
2023/05/17 05:24:52;;;;;;;5.43;1.70;;;5.30;99.90;;;;;;5006747;28;20191;-67
2023/05/17 05:27:18;;;;;;;5.13;1.83;;;5.40;99.90;;;;;;5019514;28;20186;-67
2023/05/17 05:29:45;;;;;;;2.37;1.13;;;5.50;99.90;;;;;;5017683;28;20190;-67
2023/05/17 05:32:10;;;;;;;2.50;1.23;;;5.50;99.90;;;;;;5022948;28;20191;-67
2023/05/17 05:34:37;;;;;;;1.97;1.10;;;5.60;99.90;;;;;;5013590;28;20850;-67
2023/05/17 05:37:03;;;;;;;2.43;1.10;;;5.60;99.90;;;;;;5014158;28;20502;-67
2023/05/17 05:39:29;;;;;;;2.23;1.13;;;5.60;99.90;;;;;;5014005;28;20525;-67
2023/05/17 05:41:54;;;;;;;8.23;1.33;;;5.60;99.90;;;;;;5011570;28;20206;-67
2023/05/17 05:44:20;;;;;;;4.00;1.40;;;5.70;99.90;;;;;;5009711;28;20183;-67
2023/05/17 05:46:46;;;;;;;5.13;1.50;;;5.80;99.90;;;;;;5010959;28;20191;-67
2023/05/17 05:49:11;;;;;;;4.37;1.53;;;5.90;99.90;;;;;;5009742;28;20218;-67
2023/05/17 05:51:37;;;;;;;2.63;1.30;;;5.90;99.90;;;;;;5013798;28;20340;-66
2023/05/17 05:54:02;;;;;;;1.77;0.60;;;6.00;99.90;;;;;;5011257;28;20191;-66
2023/05/17 05:56:28;;;;;;;4.63;1.40;;;6.10;99.90;;;;;;5011102;28;20257;-66
2023/05/17 05:58:56;;;;;;;2.30;1.07;;;6.20;99.90;;;;;;5012248;28;20294;-67
2023/05/17 06:01:21;;;;;;;3.10;1.20;;;6.20;99.90;;;;;;5002362;28;20344;-67
2023/05/17 06:03:47;;;;;;;11.60;2.20;;;6.30;99.90;;;;;;5009427;28;21085;-68
2023/05/17 06:06:15;;;;;;;5.00;0.80;;;6.40;99.90;;;;;;5009432;28;20222;-67
2023/05/17 06:08:42;;;;;;;1.83;0.90;;;6.40;99.90;;;;;;5014046;28;20173;-65
2023/05/17 06:11:07;;;;;;;2.53;1.43;;;6.40;99.90;;;;;;5013221;28;20429;-65
2023/05/17 06:13:33;;;;;;;5.73;1.27;;;6.50;99.90;;;;;;5009328;28;20784;-65
2023/05/17 06:15:59;;;;;;;3.37;1.00;;;6.60;99.90;;;;;;5007468;28;20184;-65
2023/05/17 06:18:24;;;;;;;1.63;1.10;;;6.70;99.90;;;;;;5010452;28;20179;-65
2023/05/17 06:20:50;;;;;;;2.90;1.63;;;6.90;99.90;;;;;;5009364;28;20270;-65
2023/05/17 06:23:16;;;;;;;3.40;2.10;;;7.00;99.90;;;;;;5010625;28;20520;-65
2023/05/17 06:25:41;;;;;;;2.30;1.03;;;7.10;99.90;;;;;;5012846;28;20180;-65
2023/05/17 06:28:08;;;;;;;3.13;1.40;;;7.30;99.90;;;;;;5011628;28;20195;-66
2023/05/17 06:30:34;;;;;;;2.60;1.07;;;7.40;99.90;;;;;;5012724;28;20538;-66
2023/05/17 06:33:00;;;;;;;1.80;1.10;;;7.50;99.90;;;;;;5010990;28;20425;-65
2023/05/17 06:35:25;;;;;;;3.37;1.20;;;7.50;99.90;;;;;;5009717;28;20461;-65
2023/05/17 06:37:51;;;;;;;2.87;1.10;;;7.50;99.90;;;;;;5010444;28;20187;-68
2023/05/17 06:40:16;;;;;;;6.80;1.43;;;7.60;99.90;;;;;;5011788;28;20289;-67
2023/05/17 06:42:42;;;;;;;2.20;1.00;;;7.80;99.90;;;;;;5011724;28;20572;-68
2023/05/17 06:45:08;;;;;;;4.07;1.40;;;7.90;99.90;;;;;;5012668;28;20461;-68
2023/05/17 06:47:34;;;;;;;5.43;1.27;;;8.00;99.90;;;;;;5012787;28;20178;-68
2023/05/17 06:50:00;;;;;;;2.00;1.00;;;8.10;99.90;;;;;;5011907;28;20556;-67
2023/05/17 06:52:25;;;;;;;3.53;1.40;;;8.10;99.90;;;;;;5015403;28;20266;-68
2023/05/17 06:54:51;;;;;;;6.20;1.67;;;8.10;99.90;;;;;;5009232;28;20175;-67
2023/05/17 06:57:17;;;;;;;3.03;1.43;;;8.30;99.90;;;;;;5007879;28;20211;-68
2023/05/17 06:59:42;;;;;;;2.17;1.17;;;8.60;99.90;;;;;;5011781;28;20271;-68
2023/05/17 07:02:08;;;;;;;2.40;1.23;;;8.70;99.90;;;;;;5011579;28;20355;-67
2023/05/17 07:04:34;;;;;;;6.13;1.43;;;9.00;99.90;;;;;;5009457;28;20183;-67
2023/05/17 07:06:59;;;;;;;3.50;0.90;;;9.50;99.90;;;;;;5011719;28;20199;-67
2023/05/17 07:09:25;;;;;;;6.10;1.70;;;9.70;99.90;;;;;;5011828;28;20183;-68
2023/05/17 07:11:51;;;;;;;5.90;1.57;;;9.80;99.90;;;;;;5012320;28;20223;-68
2023/05/17 07:14:16;;;;;;;2.57;0.90;;;10.30;99.90;;;;;;5011534;28;20186;-68
2023/05/17 07:16:42;;;;;;;3.73;1.60;;;10.30;99.90;;;;;;5008650;28;20191;-68
2023/05/17 07:19:07;;;;;;;1.70;0.90;;;10.60;99.90;;;;;;5008359;28;20237;-68
2023/05/17 07:21:33;;;;;;;2.77;1.40;;;10.40;99.90;;;;;;5010023;28;20233;-68
2023/05/17 07:23:59;;;;;;;3.13;1.43;;;10.20;99.90;;;;;;5012374;28;20184;-68
2023/05/17 07:26:25;;;;;;;1.87;0.90;;;10.20;99.70;;;;;;5011211;28;20183;-68
2023/05/17 07:28:50;;;;;;;3.17;1.37;;;10.00;99.90;;;;;;5011968;28;20246;-68
2023/05/17 07:31:17;;;;;;;2.83;1.60;;;9.90;99.90;;;;;;5011146;28;20190;-68
2023/05/17 07:33:42;;;;;;;2.63;1.10;;;9.90;99.90;;;;;;5013946;28;20282;-70
2023/05/17 07:36:08;;;;;;;3.33;1.27;;;10.20;99.90;;;;;;5010600;28;20966;-70
2023/05/17 07:38:36;;;;;;;3.20;1.53;;;10.50;99.50;;;;;;5011486;28;20191;-68
2023/05/17 07:41:02;;;;;;;5.27;1.37;;;11.00;98.80;;;;;;5011345;28;20241;-68
2023/05/17 07:43:28;;;;;;;2.17;1.07;;;11.30;98.50;;;;;;5001481;28;20450;-69
2023/05/17 07:45:54;;;;;;;3.23;1.70;;;11.80;98.20;;;;;;5006765;28;20431;-69
2023/05/17 07:48:20;;;;;;;1.60;0.90;;;12.70;96.80;;;;;;5009435;28;20309;-69
2023/05/17 07:50:45;;;;;;;5.67;1.40;;;13.90;94.90;;;;;;5008222;28;20298;-69
2023/05/17 07:53:11;;;;;;;3.53;1.10;;;14.40;93.30;;;;;;5007393;28;20578;-68
2023/05/17 07:55:37;;;;;;;6.63;1.77;;;14.30;92.50;;;;;;5005405;28;20644;-68
2023/05/17 07:58:02;;;;;;;3.00;1.63;;;13.70;93.00;;;;;;5004731;28;20325;-68
2023/05/17 08:00:28;;;;;;;6.37;2.17;;;13.00;93.10;;;;;;4991499;28;20248;-68
2023/05/17 08:02:55;;;;;;;2.30;1.17;;;12.40;94.20;;;;;;5005813;28;20532;-69
2023/05/17 08:05:20;;;;;;;3.77;1.80;;;11.90;95.40;;;;;;5013163;28;20617;-69
2023/05/17 08:07:46;;;;;;;7.33;1.60;;;11.60;95.70;;;;;;5010924;28;20433;-69
2023/05/17 08:10:11;;;;;;;2.60;1.43;;;11.90;95.60;;;;;;5010386;28;20195;-69
2023/05/17 08:12:37;;;;;;;4.70;1.20;;;11.90;96.00;;;;;;5010185;28;20655;-69
2023/05/17 08:15:03;;;;;;;2.47;1.37;;;11.80;96.00;;;;;;5010343;28;20187;-69
2023/05/17 08:17:29;;;;;;;5.33;2.10;;;11.40;96.40;;;;;;5010942;28;20226;-68
2023/05/17 08:19:54;;;;;;;2.37;1.30;;;10.90;97.20;;;;;;5009328;28;20193;-69
2023/05/17 08:22:20;;;;;;;4.10;1.20;;;10.70;97.20;;;;;;5008759;28;20203;-68
2023/05/17 08:24:46;;;;;;;3.63;2.17;;;10.70;97.90;;;;;;5007605;28;20725;-69
2023/05/17 08:27:11;;;;;;;5.60;1.40;;;10.80;97.70;;;;;;5005934;28;20582;-68
2023/05/17 08:29:37;;;;;;;2.60;1.43;;;10.70;96.60;;;;;;5008408;28;20175;-70
2023/05/17 08:32:03;;;;;;;2.23;1.20;;;10.50;97.60;;;;;;5008280;28;20179;-69
2023/05/17 08:34:29;;;;;;;4.13;1.73;;;11.20;97.60;;;;;;5013706;28;20182;-70
2023/05/17 08:36:54;;;;;;;8.70;1.50;;;11.50;96.00;;;;;;5013788;28;20569;-69
2023/05/17 08:39:20;;;;;;;4.53;1.77;;;11.40;96.10;;;;;;5009550;28;20183;-69
2023/05/17 08:41:47;;;;;;;4.90;1.60;;;11.50;95.40;;;;;;5008229;28;20302;-69
2023/05/17 08:44:15;;;;;;;7.97;1.80;;;11.30;96.10;;;;;;5010947;28;20179;-69
2023/05/17 08:46:52;;;;;;;2.17;1.33;;;11.50;95.80;;;;;;5018792;28;20428;-69
2023/05/17 08:49:20;;;;;;;4.70;1.90;;;12.40;95.50;;;;;;5010187;28;20423;-70
2023/05/17 08:51:48;;;;;;;5.10;1.00;;;13.10;94.10;;;;;;5008471;28;20438;-70
2023/05/17 08:54:14;;;;;;;4.63;1.93;;;13.70;93.60;;;;;;5010132;28;20437;-67
2023/05/17 08:56:41;;;;;;;4.30;1.57;;;14.50;93.10;;;;;;5009495;28;20430;-67
2023/05/17 08:59:11;;;;;;;3.90;1.40;;;15.10;91.00;;;;;;5008644;28;20191;-67
2023/05/17 09:01:40;;;;;;;4.43;1.50;;;14.90;90.30;;;;;;5013151;28;20426;-67
2023/05/17 09:04:11;;;;;;;3.40;1.70;;;14.50;90.40;;;;;;5013227;28;20433;-67
2023/05/17 09:06:37;;;;;;;3.57;1.70;;;14.20;91.70;;;;;;5013932;28;20795;-68
2023/05/17 09:09:06;;;;;;;3.50;1.70;;;14.30;92.00;;;;;;5019110;28;20432;-67
2023/05/17 09:11:32;;;;;;;6.27;1.73;;;14.90;89.30;;;;;;5013574;28;20417;-68
2023/05/17 09:14:03;;;;;;;2.50;0.97;;;14.60;90.70;;;;;;5013619;28;20448;-68
2023/05/17 09:16:34;;;;;;;1.97;0.93;;;14.30;90.90;;;;;;5014114;28;20180;-67
2023/05/17 09:19:02;;;;;;;2.50;1.20;;;13.90;91.80;;;;;;5013491;28;20414;-68
2023/05/17 09:21:30;;;;;;;6.60;1.70;;;13.30;92.10;;;;;;5008583;28;20457;-68
2023/05/17 09:24:00;;;;;;;4.03;1.63;;;12.90;92.30;;;;;;5013585;28;20428;-68
2023/05/17 09:26:40;;;;;;;3.50;1.53;;;12.60;92.30;;;;;;5010010;28;20450;-68
2023/05/17 09:29:13;;;;;;;3.90;1.60;;;12.10;93.20;;;;;;5022442;28;20936;-68
2023/05/17 09:31:40;;;;;;;3.87;2.00;;;11.80;93.60;;;;;;5011697;28;20437;-68
2023/05/17 09:34:06;;;;;;;4.73;1.60;;;11.50;94.80;;;;;;5012156;28;20433;-68
2023/05/17 09:36:35;;;;;;;2.53;1.23;;;11.60;95.40;;;;;;5013184;28;20426;-68
2023/05/17 09:39:04;;;;;;;4.30;2.03;;;12.40;93.30;;;;;;5012906;28;20429;-68
2023/05/17 09:41:32;;;;;;;7.23;2.17;;;12.80;92.40;;;;;;5012320;28;20788;-67
2023/05/17 09:44:02;;;;;;;2.90;1.77;;;12.70;92.30;;;;;;5012802;28;20501;-67
2023/05/17 09:46:32;;;;;;;6.30;1.43;;;12.50;92.40;;;;;;5012861;28;20982;-68
2023/05/17 09:49:00;;;;;;;3.40;1.83;;;12.20;93.60;;;;;;5012831;28;20410;-67
2023/05/17 09:51:40;;;;;;;2.33;1.60;;;12.10;92.80;;;;;;5011664;28;20426;-67
2023/05/17 09:54:06;;;;;;;3.67;1.37;;;11.90;93.50;;;;;;5013091;28;20417;-67
2023/05/17 09:56:33;;;;;;;3.70;1.87;;;11.90;93.80;;;;;;5012526;28;20420;-67
2023/05/17 09:59:09;;;;;;;10.03;2.17;;;11.90;94.00;;;;;;5018892;28;20178;-67
2023/05/17 10:01:36;;;;;;;4.10;1.53;;;12.10;94.10;;;;;;5016733;28;20414;-68
2023/05/17 10:04:02;;;;;;;7.73;1.40;;;12.80;93.50;;;;;;5011171;28;21087;-68
2023/05/17 10:06:29;;;;;;;3.67;1.47;;;13.30;92.90;;;;;;5012803;28;20441;-68
2023/05/17 10:08:57;;;;;;;3.57;1.33;;;13.20;92.10;;;;;;5011298;28;21182;-68
2023/05/17 10:11:33;;;;;;;2.60;1.50;;;13.00;92.60;;;;;;5011603;28;20955;-68
2023/05/17 10:14:27;;;;;;;4.00;1.40;;;13.10;92.40;;;;;;5011827;28;20418;-67
2023/05/17 10:16:53;;;;;;;2.30;1.57;;;13.30;87.40;;;;;;5011834;28;20426;-67
2023/05/17 10:19:20;;;;;;;2.63;1.37;;;13.40;89.70;;;;;;5011299;28;20414;-67
2023/05/17 10:21:48;;;;;;;1.90;0.97;;;13.00;90.00;;;;;;5011673;28;20507;-67
2023/05/17 10:24:15;;;;;;;2.10;1.30;;;13.00;86.90;;;;;;5012366;28;20509;-67
2023/05/17 10:26:42;;;;;;;5.00;1.60;;;13.10;84.10;;;;;;5011290;28;20425;-67
2023/05/17 10:29:08;;;;;;;2.33;1.27;;;13.10;84.70;;;;;;5012135;28;20421;-70
2023/05/17 10:31:35;;;;;;;5.60;1.30;;;13.40;88.50;;;;;;5011098;28;20422;-66
2023/05/17 10:34:07;;;;;;;5.13;1.53;;;13.30;90.30;;;;;;5011021;28;20437;-67
2023/05/17 10:36:33;;;;;;;3.03;1.57;;;13.40;90.50;;;;;;5010484;28;20428;-66
2023/05/17 10:38:59;;;;;;;1.80;1.10;;;13.20;90.30;;;;;;5012522;28;20418;-67
2023/05/17 10:41:33;;;;;;;3.87;1.90;;;13.10;92.10;;;;;;5017589;28;20349;-67
2023/05/17 10:44:02;;;;;;;2.90;1.20;;;13.20;90.40;;;;;;5014768;28;20422;-67
2023/05/17 10:46:29;;;;;;;1.97;1.00;;;13.50;92.30;;;;;;5011898;28;20422;-68
2023/05/17 10:48:57;;;;;;;3.67;1.30;;;13.90;89.60;;;;;;5011668;28;20445;-67
2023/05/17 10:51:25;;;;;;;2.70;1.43;;;14.00;86.60;;;;;;5015424;28;20447;-67
2023/05/17 10:54:10;;;;;;;4.00;1.97;;;13.70;83.30;;;;;;5016566;28;20418;-67
2023/05/17 10:56:40;;;;;;;2.80;1.70;;;13.60;86.70;;;;;;5011536;28;20422;-67
2023/05/17 10:59:16;;;;;;;4.77;1.60;;;13.50;86.70;;;;;;5011574;28;20453;-67
2023/05/17 11:02:02;;;;;;;2.20;1.40;;;13.50;86.70;;;;;;5010868;28;20496;-67
2023/05/17 11:04:49;;;;;;;4.57;1.80;;;13.80;85.80;;;;;;5013863;28;20418;-67
2023/05/17 11:09:45;;;;;;;2.77;1.60;;;14.00;86.20;;;;;;5017857;28;20450;-67
2023/05/17 11:12:14;;;;;;;1.77;1.10;;;13.80;86.10;;;;;;5010595;28;20425;-67
2023/05/17 11:14:57;;;;;;;2.67;1.30;;;13.50;88.40;;;;;;5011680;28;20425;-68
2023/05/17 11:17:32;;;;;;;3.20;1.30;;;13.50;87.90;;;;;;5010010;28;20479;-67
2023/05/17 11:20:06;;;;;;;6.30;1.70;;;13.70;87.40;;;;;;5010647;28;20433;-67
2023/05/17 11:22:36;;;;;;;1.80;1.10;;;13.80;87.50;;;;;;5012384;28;20465;-68
2023/05/17 11:25:06;;;;;;;2.53;1.20;;;13.70;87.50;;;;;;5019751;28;20513;-67
2023/05/17 11:27:37;;;;;;;4.40;1.93;;;13.70;88.20;;;;;;5004521;28;20414;-68
2023/05/17 11:30:29;;;;;;;4.20;1.97;;;13.70;86.90;;;;;;5011411;28;20514;-68
2023/05/17 11:32:59;;;;;;;2.93;1.33;;;13.60;87.10;;;;;;5004750;28;20520;-68
2023/05/17 11:35:32;;;;;;;6.67;1.87;;;13.60;86.40;;;;;;5010947;28;20440;-68
2023/05/17 11:38:16;;;;;;;3.87;1.63;;;13.60;87.40;;;;;;5019014;28;20414;-68
2023/05/17 11:40:43;;;;;;;2.57;1.63;;;13.70;90.70;;;;;;5011359;28;20417;-69
2023/05/17 11:43:34;;;;;;;8.63;2.53;;;14.10;87.60;;;;;;5010854;28;21001;-68
2023/05/17 11:46:04;;;;;;;3.60;1.20;;;14.40;86.80;;;;;;5014301;28;20410;-68
2023/05/17 11:48:30;;;;;;;6.53;1.77;;;14.70;87.30;;;;;;5010856;28;20413;-68
2023/05/17 11:50:56;;;;;;;3.83;1.43;;;14.40;85.60;;;;;;5010115;28;21026;-68
2023/05/17 11:53:24;;;;;;;5.30;2.23;;;14.10;84.70;;;;;;5010158;28;20425;-68
2023/05/17 11:55:51;;;;;;;2.57;1.10;;;13.80;87.10;;;;;;5010474;28;20184;-68
2023/05/17 11:58:24;;;;;;;5.60;1.90;;;13.60;89.50;;;;;;5009953;28;20441;-68
2023/05/17 12:00:55;;;;;;;10.07;2.00;;;13.40;88.60;;;;;;5011791;28;20428;-68
2023/05/17 12:03:25;;;;;;;4.93;1.80;;;13.40;89.10;;;;;;5014112;28;20863;-68
2023/05/17 12:06:00;;;;;;;9.43;1.37;;;13.40;87.70;;;;;;5014750;28;20460;-68
2023/05/17 12:08:26;;;;;;;6.63;1.50;;;13.30;90.10;;;;;;5013853;28;21622;-68
2023/05/17 12:10:52;;;;;;;6.90;2.00;;;13.40;90.50;;;;;;5014688;28;20425;-68
2023/05/17 12:13:19;;;;;;;3.33;1.50;;;13.50;90.00;;;;;;5016840;28;20229;-68
2023/05/17 12:15:54;;;;;;;7.53;1.70;;;13.60;89.10;;;;;;5015708;28;20190;-68
2023/05/17 12:18:20;;;;;;;2.20;1.10;;;13.70;89.20;;;;;;5013158;28;20423;-68
2023/05/17 12:20:58;;;;;;;5.53;1.53;;;14.00;88.10;;;;;;5015893;28;21478;-68
2023/05/17 12:23:28;;;;;;;5.77;2.10;;;14.00;90.50;;;;;;5015125;28;20283;-68
2023/05/17 12:26:09;;;;;;;3.50;1.87;;;14.00;90.30;;;;;;5013357;28;20894;-68
2023/05/17 12:28:37;;;;;;;9.30;1.70;;;13.90;91.00;;;;;;5013047;28;20441;-67
2023/05/17 12:31:08;;;;;;;3.97;1.80;;;13.70;90.50;;;;;;5012905;28;20425;-68
2023/05/17 12:33:40;;;;;;;3.53;1.87;;;13.20;91.70;;;;;;5010555;28;20789;-68
2023/05/17 12:36:07;;;;;;;4.00;1.87;;;13.20;91.60;;;;;;5008901;28;20817;-68
2023/05/17 12:38:34;;;;;;;4.07;2.43;;;13.50;91.00;;;;;;5009844;28;20476;-68
2023/05/17 12:41:04;;;;;;;3.13;1.47;;;13.80;90.00;;;;;;5022696;28;20817;-67
2023/05/17 12:43:35;;;;;;;5.50;1.90;;;13.90;90.80;;;;;;5010826;28;20461;-68
2023/05/17 12:46:06;;;;;;;2.80;1.57;;;13.90;90.60;;;;;;5010176;28;20420;-68
2023/05/17 12:48:39;;;;;;;9.40;1.57;;;14.00;90.80;;;;;;5009743;28;20414;-68
2023/05/17 12:51:08;;;;;;;3.30;1.70;;;14.00;89.60;;;;;;5012220;28;20425;-68
2023/05/17 12:53:48;;;;;;;15.33;2.53;;;13.90;88.00;;;;;;5014346;28;20456;-68
2023/05/17 12:56:15;;;;;;;5.67;2.30;;;14.00;88.50;;;;;;5009038;28;20816;-68
2023/05/17 12:58:41;;;;;;;3.40;1.60;;;14.00;87.90;;;;;;5009936;28;20430;-68